gettemplate.com alexa rank chart, gettemplate.com alexa rank daily changes

gettemplate.com alexa rank chart, gettemplate.com alexa rank daily changes

gettemplate.com
Actual rank:
312 477

RANK HISTORY

Date Rank Diff
2017/03/28 312 477 -646
2017/03/27 313 123 +16 560
2017/03/26 296 563 +9 390
2017/03/25 287 173 -1 339
2017/03/24 288 512 +4 689
2017/03/23 283 823 +10 922
2017/03/22 272 901 +3 782
2017/03/21 269 119 +1 723
2017/03/20 267 396 +2 611
2017/03/19 264 785 -5 118
2017/03/18 269 903 +5 550
2017/03/17 264 353 +1 598
2017/03/16 262 755 +16 870
2017/03/15 245 885 -1 816
2017/03/14 247 701 -2 565
2017/03/13 250 266 +2 111
2017/03/12 248 155 +5 596
2017/03/11 242 559 +520
2017/03/10 242 039 +6 305
2017/03/09 235 734 -529
2017/03/08 236 263 +1 726
2017/03/07 234 537 +14 266
2017/03/06 220 271 +21 735
2017/03/01 198 536 -1 823
2017/02/28 200 359 +1 795
2017/02/27 198 564 -3 595
2017/02/26 202 159 +3 766
2017/02/25 198 393 +4 258
2017/02/24 194 135 +1 402
2017/02/23 192 733 -2 150
2017/02/22 194 883 +1 461
2017/02/21 193 422 +1 181
2017/02/20 192 241 -312
2017/02/19 192 553 +211
2017/02/18 192 342 -1 224
2017/02/17 193 566 -427
2017/02/16 193 993 -9 082
2017/02/15 203 075 +6 638
2017/02/14 196 437 +14 063
2017/02/13 182 374 -1 325
2017/02/12 183 699 +2 760
2017/02/11 180 939 -2 869
2017/02/10 183 808 -3 392
2017/02/09 187 200 +1 529
2017/02/08 185 671 +3 850
2017/02/07 181 821 -568
2017/02/06 182 389 -633
2017/02/05 183 022 +658
2017/02/04 182 364 +2 593
2017/02/03 179 771 -1 092
2017/02/02 180 863 -13 378
2017/02/01 194 241 -3 288
2017/01/31 197 529 +1 055
2017/01/30 196 474 +391
2017/01/29 196 083 -1 137
2017/01/28 197 220 +1 641
2017/01/27 195 579 +455
2017/01/26 195 124

WIDGET FOR YOUR SITE

DOMAINS WITH THE NEAREST RANK

Domain Rank
menkyo.jp 312 472
rivaekaputra.com 312 473
fnbox.jp 312 474
philippinecountry.com 312 475
andisheh.tv 312 476
gettemplate.com 312 477
lesserrorsonmac.tech 312 478
hugsandcookiesxoxo.com 312 479
goodtrading.ru 312 480
kadewe.de 312 481
ctripcorp.com 312 482

DOMAINS WITH THE NEAREST RANK BY TLD .com

Domain Rank
qiujieda.com 312 468
easybabylife.com 312 469
superlogica.com 312 471
rivaekaputra.com 312 473
philippinecountry.com 312 475
gettemplate.com 312 477
hugsandcookiesxoxo.com 312 479
ctripcorp.com 312 482
myresaleweb.com 312 484
duckduckmoose.com 312 486
eostis.com 312 487